Dornsife, PA (17823)

7:12 PM EST on December 10, 2016 (GMT -0500)
Old Middlecreek Lake Area | | Change Station
Active Advisory: Winter Weather Advisory

Elev 449 ft 40.76 °N, 76.89 °W | Updated 24 seconds ago

Clear
Clear
23.5 °F
Feels Like 18 °F
N
4.0
Wind Variable Wind from West
Gusts 4.9 mph

Today
High -- | Low -- °F
--% Chance of Precip.
Yesterday
High -- | Low -- °F
Precip. -- in
Pressure 30.48 in
Visibility 10.0 miles
Clouds Clear
Windchill 18 °F
Dew Point 13 °F
Humidity 64%
Rainfall 0.00 in
Snow Depth Not available.
7:20 AM 4:39 PM
Waxing Gibbous, 87% visible
METAR KSEG 102353Z AUTO 00000KT 10SM CLR M03/M09 A3046 RMK AO2 SLP320 T10281089 10006 21028 51015
Pressure 30.48 in
Visibility 10.0 miles
Clouds Clear
Windchill 18 °F
Dew Point 13 °F
Humidity 64%
Rainfall 0.00 in
Snow Depth Not available.
7:20 AM 4:39 PM
Waxing Gibbous, 87% visible
METAR KSEG 102353Z AUTO 00000KT 10SM CLR M03/M09 A3046 RMK AO2 SLP320 T10281089 10006 21028 51015

10-Day Weather Forecast

Almanac

Astronomy

Dec. 10, 2016 Rise Set
Actual Time
Civil Twilight
Nautical Twilight
Astronomical Twilight
Moon
Length of Visible Light
Length of Day
Tomorrow will be .
, % of the Moon is Illuminated

Today's Extremes

State Highs State Lows

Community

WunderPhotos

Upload Photos

1,956,680 photos uploaded!

WunderBlog® & News

Nearby

Air Quality

  Air Quality AQ Index Pollutant
Not available.

Snow Depth

Station Depth Elevation

Earthquake Activity

City Distance Mag. Time & Date
Minimum magnitude displayed is 2.5.

Coastal Water Temperatures

Place Temperature

Stations

Nearby Weather Stations

Station Location Temp. Windchill Dew Point Humidity Wind Precip. Elev Updated Type
                   

Watches & Warnings

Winter Weather Advisory
Issued: 2:20 PM EST Dec. 10, 2016 – National Weather Service

... Winter Weather Advisory in effect from 4 am Sunday to 1 PM EST
Monday...

* timing... snow will start in the west during the predawn hours of
Sunday and overspread the region Sunday morning. The area from
about Interstate 80 southward will likely see a changeover to
snow-sleet or freezing rain Sunday evening and overnight into
Monday morning.

* Snow accumulations... 3-6 inches from Interstate 80 northward.
1-3 inches south of the Interstate with a light coating of ice
likely late Sunday into Monday morning.

* Main impact... poor Road conditions and hazardous travel.



Precautionary/preparedness actions...

The Pennsylvania Department of Transportation reminds motorists
to adjust speeds based on driving conditions and to take it slow
in ice and snow.